Rancho La Tuna Canyon, California
Current Conditions -  °F | °C
As of 12:53 PM on Thursday 23 Oct 2014 (Local Time) from KBUR Reporting Station
Clear Clear  
Wind Chill: 85°   Ceiling: Unl
Heat Index: 85°   Visibility: 10mi
Dew Point: 44°   Wind: 3mph
Humidity: 24%   Direction: NA
Pressure: 29.97"   Gusts: NA
Location:  34.2294°N, 118.357°W
Report Text: KBUR 231953Z VRB03KT 10SM CLR 29/07 A2997 RMK AO2 SLP135 T02940067
Loading
Personal Weather Stations






























Interactive Weather Map
Tropical Storm Tracking
New forecast layout! Learn more

10-Day Weather Forecast

Advertisements
Track Severe Weather on mobile